Time;durP1;ratioP1;P1;durP2;ratioP2;P2;SDS_P1;SDS_P2;PMS_P1;PMS_P2;Temp;Humidity;BMP_temperature;BMP_pressure;BME280_temperature;BME280_humidity;BME280_pressure;Samples;Min_cycle;Max_cycle;Signal;HPM_P1;HPM_P2
2022/04/16 00:00:56;;;;;;;44.80;39.72;;;29.00;99.50;;;;;;4146898;28;20053;-70
2022/04/16 00:03:04;;;;;;;44.80;39.90;;;29.00;99.40;;;;;;4145216;28;20084;-71
2022/04/16 00:05:11;;;;;;;42.35;37.95;;;29.10;99.80;;;;;;4146777;28;20060;-72
2022/04/16 00:07:19;;;;;;;44.42;39.72;;;29.10;99.60;;;;;;4160705;28;20057;-71
2022/04/16 00:09:26;;;;;;;43.10;38.47;;;29.10;99.60;;;;;;4147534;28;20532;-73
2022/04/16 00:11:31;;;;;;;44.75;37.95;;;29.20;99.50;;;;;;4160758;28;20483;-72
2022/04/16 00:13:37;;;;;;;44.97;36.53;;;29.20;99.50;;;;;;4160730;28;20160;-72
2022/04/16 00:15:44;;;;;;;42.35;37.92;;;29.20;99.50;;;;;;4148261;28;20405;-72
2022/04/16 00:18:00;;;;;;;52.33;42.25;;;29.20;99.30;;;;;;4162393;28;20037;-71
2022/04/16 00:20:11;;;;;;;56.80;43.38;;;29.30;99.30;;;;;;4161871;28;20038;-72
2022/04/16 00:22:23;;;;;;;51.53;42.75;;;29.30;99.30;;;;;;4148860;28;20049;-71
2022/04/16 00:24:30;;;;;;;53.08;42.85;;;29.40;99.20;;;;;;4150890;28;20048;-71
2022/04/16 00:26:40;;;;;;;48.80;43.63;;;29.40;99.20;;;;;;4160321;28;20084;-71
2022/04/16 00:28:46;;;;;;;46.78;41.67;;;29.50;99.10;;;;;;4155977;28;20053;-70
2022/04/16 00:30:56;;;;;;;45.35;39.30;;;29.50;99.10;;;;;;4154451;28;20455;-71
2022/04/16 00:33:02;;;;;;;42.92;38.42;;;29.50;99.20;;;;;;4155706;28;20083;-71
2022/04/16 00:35:09;;;;;;;43.33;38.65;;;29.60;99.00;;;;;;4139341;28;20798;-71
2022/04/16 00:37:17;;;;;;;45.80;39.10;;;29.70;98.90;;;;;;4155533;28;20049;-71
2022/04/16 00:39:22;;;;;;;44.00;39.28;;;29.70;98.90;;;;;;4155914;28;20054;-70
2022/04/16 00:41:27;;;;;;;46.90;39.45;;;29.80;98.80;;;;;;4154433;28;20049;-70
2022/04/16 00:43:33;;;;;;;43.47;37.78;;;29.80;98.70;;;;;;4170099;28;20037;-70
2022/04/16 00:45:39;;;;;;;46.67;39.30;;;29.90;98.90;;;;;;4161657;28;20100;-68
2022/04/16 00:47:45;;;;;;;43.92;39.22;;;29.90;98.50;;;;;;4161797;28;20034;-70
2022/04/16 00:49:52;;;;;;;43.65;38.53;;;29.90;98.50;;;;;;4160793;28;20037;-69
2022/04/16 00:51:56;;;;;;;47.22;38.80;;;30.00;98.40;;;;;;4153722;28;20068;-69
2022/04/16 00:54:03;;;;;;;42.60;38.13;;;30.00;98.30;;;;;;4158113;28;20049;-70
2022/04/16 00:56:11;;;;;;;42.92;38.22;;;30.10;98.20;;;;;;4151186;28;20176;-69
2022/04/16 00:58:16;;;;;;;39.65;35.33;;;30.10;98.40;;;;;;4160168;28;20049;-69
2022/04/16 01:00:24;;;;;;;39.47;35.28;;;30.10;98.30;;;;;;4153304;28;20140;-69
2022/04/16 01:02:29;;;;;;;38.88;34.67;;;30.20;97.90;;;;;;4152990;28;20050;-69
2022/04/16 01:04:35;;;;;;;39.13;34.92;;;30.30;97.80;;;;;;4166955;28;20045;-69
2022/04/16 01:06:48;;;;;;;42.40;34.97;;;30.30;97.70;;;;;;4152583;28;20365;-70
2022/04/16 01:08:55;;;;;;;38.13;33.20;;;30.30;97.50;;;;;;4153256;28;20037;-69
2022/04/16 01:11:03;;;;;;;36.90;32.95;;;30.30;97.20;;;;;;4152883;28;20041;-69
2022/04/16 01:13:11;;;;;;;37.15;32.72;;;30.40;97.20;;;;;;4153245;28;20045;-69
2022/04/16 01:15:20;;;;;;;36.83;32.85;;;30.40;97.00;;;;;;4152006;28;20054;-70
2022/04/16 01:17:25;;;;;;;36.65;32.70;;;30.40;96.90;;;;;;4153296;28;20041;-70
2022/04/16 01:19:34;;;;;;;36.42;32.60;;;30.50;96.70;;;;;;4152950;28;20072;-70
2022/04/16 01:21:45;;;;;;;35.53;31.83;;;30.50;96.60;;;;;;4152279;28;20048;-70
2022/04/16 01:24:05;;;;;;;36.53;31.85;;;30.60;96.50;;;;;;4152619;28;20136;-70
2022/04/16 01:26:12;;;;;;;36.22;32.03;;;30.60;96.50;;;;;;4153744;28;20049;-69
2022/04/16 01:28:18;;;;;;;34.65;30.92;;;30.60;96.30;;;;;;4153806;28;20046;-69
2022/04/16 01:30:25;;;;;;;34.67;31.17;;;30.70;96.20;;;;;;4152647;28;20479;-68
2022/04/16 01:32:36;;;;;;;34.33;30.33;;;30.80;96.20;;;;;;4154750;28;20554;-69
2022/04/16 01:34:45;;;;;;;35.78;31.83;;;30.80;96.20;;;;;;4152151;28;20389;-69
2022/04/16 01:37:04;;;;;;;34.95;30.75;;;30.90;96.10;;;;;;4146589;28;20053;-70
2022/04/16 01:39:24;;;;;;;34.70;30.92;;;31.00;96.20;;;;;;4157414;28;20052;-71
2022/04/16 01:41:36;;;;;;;37.88;32.05;;;31.00;95.90;;;;;;4144618;28;20104;-69
2022/04/16 01:43:42;;;;;;;34.63;31.02;;;31.10;95.80;;;;;;4158688;28;20859;-70
2022/04/16 01:45:50;;;;;;;33.28;29.73;;;31.10;95.80;;;;;;4160978;28;20037;-70
2022/04/16 01:47:58;;;;;;;35.90;30.33;;;31.20;95.70;;;;;;4151114;28;20586;-69
2022/04/16 01:50:07;;;;;;;37.55;33.05;;;31.20;95.60;;;;;;4145196;28;20070;-70
2022/04/16 01:52:24;;;;;;;34.63;31.00;;;31.10;95.50;;;;;;4160278;28;20576;-69
2022/04/16 01:54:34;;;;;;;34.28;30.52;;;31.10;95.60;;;;;;4152164;28;20119;-70
2022/04/16 01:56:39;;;;;;;34.33;30.55;;;31.20;95.30;;;;;;4144672;28;20092;-70
2022/04/16 01:58:49;;;;;;;34.45;30.67;;;31.20;95.10;;;;;;4126659;28;20051;-70
2022/04/16 02:00:56;;;;;;;34.75;30.70;;;31.30;94.60;;;;;;4161075;28;20068;-69
2022/04/16 02:03:02;;;;;;;34.90;31.15;;;31.40;94.40;;;;;;4160979;28;20827;-70
2022/04/16 02:05:12;;;;;;;34.35;30.88;;;31.40;94.20;;;;;;4156803;28;20089;-70
2022/04/16 02:07:19;;;;;;;34.80;30.70;;;31.30;95.20;;;;;;4145559;28;20049;-71
2022/04/16 02:09:24;;;;;;;33.55;29.92;;;31.30;95.20;;;;;;4145338;28;20124;-71
2022/04/16 02:11:31;;;;;;;32.90;29.40;;;31.40;95.00;;;;;;4127512;28;20050;-71
2022/04/16 02:13:37;;;;;;;32.50;29.00;;;31.50;94.90;;;;;;4156596;28;20137;-70
2022/04/16 02:15:44;;;;;;;33.05;29.45;;;31.60;94.70;;;;;;4145901;28;20047;-70
2022/04/16 02:17:53;;;;;;;34.25;29.60;;;31.60;94.60;;;;;;4172580;28;20045;-69
2022/04/16 02:20:00;;;;;;;33.15;28.95;;;31.60;94.10;;;;;;4151553;28;20072;-68
2022/04/16 02:22:11;;;;;;;32.80;29.30;;;31.60;93.90;;;;;;4143802;28;20073;-68
2022/04/16 02:24:20;;;;;;;34.55;28.70;;;31.60;93.80;;;;;;4144423;28;20088;-68
2022/04/16 02:26:29;;;;;;;32.72;29.27;;;31.60;93.80;;;;;;4149904;28;20052;-69
2022/04/16 02:28:35;;;;;;;35.38;28.88;;;31.60;93.30;;;;;;4148603;28;20069;-69
2022/04/16 02:30:43;;;;;;;33.63;28.67;;;31.60;93.50;;;;;;4146349;28;20049;-69
2022/04/16 02:32:53;;;;;;;29.98;26.80;;;31.60;93.40;;;;;;4152353;28;20046;-69
2022/04/16 02:34:58;;;;;;;31.83;28.52;;;31.60;93.50;;;;;;4148317;28;20132;-71
2022/04/16 02:37:04;;;;;;;34.97;28.35;;;31.70;93.30;;;;;;4147661;28;20057;-72
2022/04/16 02:39:14;;;;;;;31.75;28.10;;;31.80;93.40;;;;;;4157367;28;20129;-71
2022/04/16 02:41:20;;;;;;;33.70;30.33;;;31.80;93.10;;;;;;4162840;28;20125;-71
2022/04/16 02:43:26;;;;;;;33.85;28.60;;;31.90;92.80;;;;;;4162617;28;20053;-72
2022/04/16 02:47:53;;;;;;;33.05;29.45;;;31.90;93.10;;;;;;4155003;28;20095;-72
2022/04/16 02:49:58;;;;;;;33.70;30.10;;;31.90;93.10;;;;;;4160485;28;20431;-67
2022/04/16 02:52:05;;;;;;;34.88;30.17;;;32.00;93.30;;;;;;4145683;28;20053;-70
2022/04/16 02:54:12;;;;;;;32.72;29.23;;;32.00;93.40;;;;;;4155109;28;20046;-74
2022/04/16 02:56:19;;;;;;;36.25;29.15;;;32.10;93.40;;;;;;4160621;28;20037;-72
2022/04/16 02:58:27;;;;;;;33.00;29.23;;;32.00;93.20;;;;;;4160095;28;20491;-72
2022/04/16 03:00:32;;;;;;;31.60;28.20;;;32.10;93.40;;;;;;4161063;28;20505;-70
2022/04/16 03:02:41;;;;;;;31.90;28.20;;;32.10;93.40;;;;;;4161164;28;20133;-73
2022/04/16 03:04:49;;;;;;;30.65;27.05;;;32.10;93.00;;;;;;4161008;28;20125;-72
2022/04/16 03:06:55;;;;;;;32.38;26.95;;;32.20;92.90;;;;;;4161033;28;20111;-73
2022/04/16 03:09:08;;;;;;;31.60;26.67;;;32.30;92.70;;;;;;4159307;28;20049;-73
2022/04/16 03:11:15;;;;;;;28.48;25.65;;;32.30;92.70;;;;;;4160917;28;20123;-73
2022/04/16 03:13:21;;;;;;;28.63;25.48;;;32.50;92.70;;;;;;4160892;28;20688;-72
2022/04/16 03:17:47;;;;;;;28.23;25.33;;;32.60;92.10;;;;;;4161087;28;20069;-72
2022/04/16 03:19:54;;;;;;;28.70;25.70;;;32.70;92.10;;;;;;4159249;28;20056;-72
2022/04/16 03:22:03;;;;;;;28.67;25.45;;;32.70;92.00;;;;;;4142433;28;20050;-72
2022/04/16 03:24:13;;;;;;;30.23;26.67;;;32.80;91.90;;;;;;4161020;28;20504;-72
2022/04/16 03:26:20;;;;;;;28.50;25.45;;;32.90;91.90;;;;;;4160914;28;20061;-72
2022/04/16 03:28:27;;;;;;;30.85;26.25;;;32.90;91.60;;;;;;4159412;28;20058;-73
2022/04/16 03:30:34;;;;;;;28.05;24.80;;;33.00;91.40;;;;;;4159252;28;20083;-72
2022/04/16 03:32:40;;;;;;;28.13;25.25;;;33.10;91.30;;;;;;4160980;28;20054;-72
2022/04/16 03:34:49;;;;;;;28.67;25.25;;;33.10;90.90;;;;;;4160898;28;20042;-72
2022/04/16 03:36:56;;;;;;;28.48;25.38;;;33.10;90.80;;;;;;4160284;28;20087;-72
2022/04/16 03:39:01;;;;;;;30.08;25.40;;;33.10;91.10;;;;;;4159057;28;20056;-73
2022/04/16 03:41:08;;;;;;;29.77;25.92;;;33.20;91.30;;;;;;4144543;28;20076;-72
2022/04/16 03:43:18;;;;;;;25.30;22.63;;;33.30;91.00;;;;;;4145033;28;20504;-72
2022/04/16 03:45:23;;;;;;;26.85;24.13;;;33.30;90.70;;;;;;4147704;28;20057;-72
2022/04/16 03:47:31;;;;;;;27.23;24.40;;;33.40;90.30;;;;;;4147792;28;20076;-72
2022/04/16 03:49:37;;;;;;;27.55;24.38;;;33.40;90.20;;;;;;4146733;28;20050;-72
2022/04/16 03:51:43;;;;;;;32.17;24.50;;;33.40;89.80;;;;;;4162858;28;20136;-72
2022/04/16 03:53:51;;;;;;;27.00;24.05;;;33.40;89.80;;;;;;4164009;28;20837;-72
2022/04/16 04:00:37;;;;;;;25.13;22.50;;;33.40;88.80;;;;;;4161145;28;20042;-73
2022/04/16 04:02:45;;;;;;;26.77;23.88;;;33.50;88.90;;;;;;4164270;28;20526;-72
2022/04/16 04:04:55;;;;;;;28.58;23.77;;;33.50;88.50;;;;;;4163885;28;20081;-73
2022/04/16 04:07:04;;;;;;;25.83;23.17;;;33.50;88.00;;;;;;4162138;28;20507;-72
2022/04/16 04:09:11;;;;;;;28.25;23.60;;;33.50;88.30;;;;;;4163715;28;20057;-73
2022/04/16 04:11:16;;;;;;;28.48;24.15;;;33.50;87.50;;;;;;4176706;28;20052;-73
2022/04/16 04:13:24;;;;;;;24.95;22.17;;;33.50;87.40;;;;;;4154794;28;20380;-72
2022/04/16 04:15:31;;;;;;;27.00;22.58;;;33.60;87.40;;;;;;4147241;28;20041;-73
2022/04/16 04:17:36;;;;;;;24.15;21.73;;;33.60;87.00;;;;;;4146727;28;20074;-72
2022/04/16 04:19:44;;;;;;;25.60;22.75;;;33.70;86.70;;;;;;4148374;28;20681;-72
2022/04/16 04:21:51;;;;;;;28.98;22.55;;;33.80;86.80;;;;;;4152812;28;20045;-72
2022/04/16 04:23:57;;;;;;;24.85;22.15;;;33.80;86.40;;;;;;4163907;28;20041;-70
2022/04/16 04:26:04;;;;;;;27.33;20.80;;;33.80;85.70;;;;;;4163588;28;20059;-71
2022/04/16 04:28:12;;;;;;;29.45;21.65;;;33.80;86.10;;;;;;4163488;28;20057;-71
2022/04/16 04:30:23;;;;;;;24.30;20.70;;;33.90;85.60;;;;;;4163133;28;20068;-70
2022/04/16 04:32:30;;;;;;;24.73;22.23;;;34.00;85.20;;;;;;4161008;28;20432;-72
2022/04/16 04:34:37;;;;;;;28.90;22.08;;;34.00;84.60;;;;;;4163677;28;20073;-66
2022/04/16 04:36:42;;;;;;;24.27;21.35;;;34.00;83.90;;;;;;4164236;28;20554;-72
2022/04/16 04:38:50;;;;;;;31.27;23.00;;;34.10;83.50;;;;;;4164548;28;20133;-72
2022/04/16 04:40:56;;;;;;;24.27;20.88;;;34.10;84.00;;;;;;4158150;28;20661;-70
2022/04/16 04:43:01;;;;;;;26.65;21.10;;;34.10;84.00;;;;;;4151212;28;20426;-71
2022/04/16 04:45:10;;;;;;;26.75;21.55;;;34.10;84.10;;;;;;4155372;28;20480;-72
2022/04/16 04:47:17;;;;;;;26.17;21.17;;;34.20;83.10;;;;;;4147608;28;20050;-72
2022/04/16 04:49:21;;;;;;;23.08;20.10;;;34.20;83.00;;;;;;4151499;28;20512;-72
2022/04/16 04:51:26;;;;;;;22.02;19.77;;;34.30;82.50;;;;;;4148398;28;20389;-72
2022/04/16 04:53:31;;;;;;;25.80;20.67;;;34.30;81.30;;;;;;4150497;28;20140;-72
2022/04/16 04:55:42;;;;;;;22.52;19.88;;;34.30;81.50;;;;;;4152446;28;20060;-71
2022/04/16 04:57:54;;;;;;;24.42;20.90;;;34.40;82.20;;;;;;4153131;28;20080;-72
2022/04/16 05:00:01;;;;;;;24.30;20.00;;;34.40;81.50;;;;;;4152415;28;20111;-72
2022/04/16 05:02:07;;;;;;;24.48;20.08;;;34.40;81.60;;;;;;4152701;28;20041;-72
2022/04/16 05:04:15;;;;;;;22.30;19.98;;;34.40;81.50;;;;;;4151757;28;20050;-72
2022/04/16 05:06:21;;;;;;;23.92;20.83;;;34.50;81.20;;;;;;4155415;28;20044;-71
2022/04/16 05:08:28;;;;;;;22.83;19.88;;;34.50;80.90;;;;;;4155481;28;20388;-71
2022/04/16 05:10:35;;;;;;;21.95;19.52;;;34.50;80.90;;;;;;4154443;28;20049;-71
2022/04/16 05:12:42;;;;;;;23.23;20.40;;;34.50;81.00;;;;;;4155524;28;20108;-72
2022/04/16 05:14:48;;;;;;;25.05;20.33;;;34.60;82.30;;;;;;4154307;28;20048;-71
2022/04/16 05:16:55;;;;;;;21.27;19.17;;;34.60;82.20;;;;;;4154697;28;20503;-71
2022/04/16 05:19:01;;;;;;;22.35;19.92;;;34.60;81.00;;;;;;4155400;28;20044;-70
2022/04/16 05:21:06;;;;;;;25.92;20.40;;;34.70;81.30;;;;;;4155576;28;20049;-71
2022/04/16 05:23:13;;;;;;;21.25;19.10;;;34.70;80.50;;;;;;4155442;28;20052;-72
2022/04/16 05:25:18;;;;;;;23.73;19.05;;;34.70;81.10;;;;;;4153522;28;20565;-71
2022/04/16 05:27:23;;;;;;;24.90;19.30;;;34.70;81.40;;;;;;4156803;28;20042;-70
2022/04/16 05:29:48;;;;;;;25.77;19.10;;;34.80;81.80;;;;;;4155434;28;20397;-72
2022/04/16 05:31:55;;;;;;;20.20;18.10;;;34.80;81.10;;;;;;4154945;28;20121;-73
2022/04/16 05:36:19;;;;;;;23.02;19.33;;;34.90;80.60;;;;;;4151641;28;20045;-73
2022/04/16 05:38:24;;;;;;;23.98;18.73;;;35.10;80.00;;;;;;4153226;28;20073;-72
2022/04/16 05:40:29;;;;;;;21.27;18.90;;;35.00;79.80;;;;;;4143933;28;20045;-73
2022/04/16 05:42:42;;;;;;;19.73;17.77;;;35.00;79.70;;;;;;4145084;28;20044;-72
2022/04/16 05:44:50;;;;;;;20.83;18.70;;;35.00;79.50;;;;;;4149482;28;20049;-73
2022/04/16 05:46:54;;;;;;;19.88;17.80;;;35.00;80.00;;;;;;4163559;28;20049;-73
2022/04/16 05:49:12;;;;;;;23.67;17.65;;;35.10;79.90;;;;;;4144142;28;20061;-73
2022/04/16 05:51:18;;;;;;;25.92;18.00;;;35.10;79.60;;;;;;4146381;28;20049;-73
2022/04/16 05:53:23;;;;;;;22.30;17.98;;;35.20;78.90;;;;;;4159113;28;20046;-73
2022/04/16 05:55:31;;;;;;;23.80;17.83;;;35.20;79.20;;;;;;4162854;28;20643;-72
2022/04/16 05:57:36;;;;;;;21.70;18.38;;;35.20;79.10;;;;;;4153415;28;20041;-74
2022/04/16 05:59:43;;;;;;;25.30;18.50;;;35.20;77.10;;;;;;4154875;28;20660;-71
2022/04/16 06:01:50;;;;;;;24.23;18.23;;;35.30;78.20;;;;;;4170169;28;20056;-71
2022/04/16 06:03:57;;;;;;;22.83;19.10;;;35.30;78.10;;;;;;4155236;28;20091;-72
2022/04/16 06:06:03;;;;;;;23.05;18.17;;;35.30;77.80;;;;;;4145245;28;20053;-70
2022/04/16 06:08:10;;;;;;;22.00;17.92;;;35.40;77.10;;;;;;4142501;28;20049;-70
2022/04/16 06:10:19;;;;;;;19.33;17.23;;;35.30;75.40;;;;;;4142254;28;20046;-70
2022/04/16 06:12:26;;;;;;;21.73;17.33;;;35.40;75.90;;;;;;4144824;28;20053;-71
2022/04/16 06:14:32;;;;;;;20.92;17.85;;;35.40;77.10;;;;;;4131179;28;20050;-72
2022/04/16 06:16:37;;;;;;;24.77;17.58;;;35.40;77.70;;;;;;4143709;28;20048;-73
2022/04/16 06:18:43;;;;;;;17.80;15.90;;;35.50;75.70;;;;;;4152306;28;20048;-71
2022/04/16 06:20:50;;;;;;;31.75;17.15;;;35.50;75.50;;;;;;4135683;28;20141;-70
2022/04/16 06:22:57;;;;;;;19.02;17.08;;;35.50;74.90;;;;;;4146128;28;20042;-71
2022/04/16 06:25:04;;;;;;;18.35;16.42;;;35.50;75.30;;;;;;4144791;28;20045;-70
2022/04/16 06:27:11;;;;;;;20.70;17.20;;;35.50;76.10;;;;;;4134527;28;20038;-70
2022/04/16 06:29:18;;;;;;;18.75;16.77;;;35.60;76.10;;;;;;4142736;28;20081;-70
2022/04/16 06:31:23;;;;;;;19.02;17.05;;;35.70;75.90;;;;;;4145571;28;20050;-70
2022/04/16 06:33:31;;;;;;;19.00;16.75;;;35.70;76.00;;;;;;4145089;28;20064;-70
2022/04/16 06:35:38;;;;;;;19.40;17.30;;;35.70;75.90;;;;;;4148487;28;20148;-71
2022/04/16 06:37:45;;;;;;;23.50;16.88;;;35.70;75.60;;;;;;4150215;28;20096;-70
2022/04/16 06:39:52;;;;;;;20.05;16.83;;;35.80;75.50;;;;;;4139531;28;20137;-70
2022/04/16 06:41:59;;;;;;;24.40;17.60;;;35.80;75.70;;;;;;4161913;28;20491;-71
2022/04/16 06:44:06;;;;;;;22.02;17.27;;;35.80;75.40;;;;;;4166688;28;20158;-70
2022/04/16 06:46:13;;;;;;;20.63;17.50;;;35.80;75.00;;;;;;4150990;28;20145;-69
2022/04/16 06:48:20;;;;;;;22.50;17.02;;;35.80;75.10;;;;;;4166792;28;20059;-70
2022/04/16 06:50:25;;;;;;;19.63;16.80;;;35.90;73.70;;;;;;4149181;28;20054;-70
2022/04/16 06:52:29;;;;;;;18.33;16.27;;;36.00;74.20;;;;;;4151048;28;20426;-70
2022/04/16 06:54:34;;;;;;;20.15;16.30;;;36.00;74.50;;;;;;4152080;28;20503;-69
2022/04/16 06:56:38;;;;;;;18.48;16.55;;;36.00;74.40;;;;;;4152708;28;20133;-70
2022/04/16 06:58:46;;;;;;;18.13;16.13;;;36.00;74.60;;;;;;4151189;28;20050;-70
2022/04/16 07:00:53;;;;;;;20.27;16.42;;;36.00;74.90;;;;;;4167257;28;20556;-70
2022/04/16 07:02:57;;;;;;;18.77;16.80;;;36.10;74.30;;;;;;4151593;28;20061;-70
2022/04/16 07:05:07;;;;;;;16.83;15.13;;;36.10;73.80;;;;;;4151773;28;20065;-70
2022/04/16 07:07:12;;;;;;;17.45;15.70;;;36.10;73.20;;;;;;4150380;28;20081;-70
2022/04/16 07:09:16;;;;;;;18.48;16.58;;;36.10;73.30;;;;;;4151278;28;20601;-68
2022/04/16 07:11:23;;;;;;;22.17;16.35;;;36.10;73.00;;;;;;4133856;28;20154;-69
2022/04/16 07:13:30;;;;;;;19.58;15.90;;;36.10;72.30;;;;;;4151372;28;20048;-69
2022/04/16 07:15:35;;;;;;;18.23;15.82;;;36.10;72.00;;;;;;4152022;28;20111;-69
2022/04/16 07:17:42;;;;;;;20.50;15.85;;;36.10;72.60;;;;;;4153590;28;20091;-69
2022/04/16 07:19:48;;;;;;;17.58;15.52;;;36.20;73.20;;;;;;4166355;28;20439;-69
2022/04/16 07:21:54;;;;;;;19.17;15.55;;;36.20;73.10;;;;;;4150697;28;20092;-70
2022/04/16 07:24:02;;;;;;;19.75;16.52;;;36.20;72.80;;;;;;4151935;28;20037;-70
2022/04/16 07:26:08;;;;;;;17.92;15.75;;;36.30;72.30;;;;;;4150876;28;20398;-70
2022/04/16 07:28:21;;;;;;;17.40;15.40;;;36.30;72.80;;;;;;4151275;28;20104;-71
2022/04/16 07:30:27;;;;;;;16.90;15.05;;;36.30;72.80;;;;;;4149666;28;20096;-69
2022/04/16 07:32:39;;;;;;;18.10;15.13;;;36.30;72.90;;;;;;4153957;28;20080;-70
2022/04/16 07:34:44;;;;;;;17.85;14.95;;;36.30;72.80;;;;;;4151233;28;20058;-70
2022/04/16 07:36:52;;;;;;;17.45;15.75;;;36.40;72.70;;;;;;4134160;28;20397;-70
2022/04/16 07:38:57;;;;;;;17.67;15.38;;;36.40;72.70;;;;;;4151234;28;20049;-69
2022/04/16 07:41:05;;;;;;;17.70;15.73;;;36.40;72.30;;;;;;4147984;28;20076;-71
2022/04/16 07:43:10;;;;;;;20.05;15.70;;;36.40;71.70;;;;;;4152325;28;20412;-70
2022/04/16 07:45:16;;;;;;;17.65;15.95;;;36.50;71.50;;;;;;4152745;28;20057;-69
2022/04/16 07:47:22;;;;;;;19.92;17.63;;;36.50;71.70;;;;;;4152763;28;20129;-70
2022/04/16 07:49:28;;;;;;;19.77;16.70;;;36.50;72.10;;;;;;4132403;28;20512;-69
2022/04/16 07:51:34;;;;;;;19.63;17.20;;;36.50;72.70;;;;;;4149283;28;20155;-69
2022/04/16 07:53:39;;;;;;;19.67;17.20;;;36.50;72.60;;;;;;4145393;28;20042;-69
2022/04/16 07:55:47;;;;;;;18.83;16.83;;;36.50;72.80;;;;;;4125477;28;20061;-70
2022/04/16 07:57:53;;;;;;;20.42;16.63;;;36.50;72.90;;;;;;4145596;28;20052;-69
2022/04/16 07:59:58;;;;;;;20.45;16.75;;;36.60;73.10;;;;;;4147630;28;20045;-69
2022/04/16 08:02:15;;;;;;;18.83;16.83;;;36.60;73.00;;;;;;4128256;28;20042;-69
2022/04/16 08:04:22;;;;;;;18.52;16.73;;;36.60;73.00;;;;;;4147109;28;20077;-68
2022/04/16 08:06:26;;;;;;;21.45;17.25;;;36.50;72.90;;;;;;4145624;28;20053;-68
2022/04/16 08:08:33;;;;;;;19.05;16.48;;;36.50;71.80;;;;;;4144687;28;20138;-68
2022/04/16 08:10:40;;;;;;;20.92;17.67;;;36.50;72.80;;;;;;4147254;28;20768;-68
2022/04/16 08:12:44;;;;;;;19.63;16.58;;;36.50;73.00;;;;;;4145504;28;20042;-68
2022/04/16 08:14:50;;;;;;;19.25;17.23;;;36.50;73.00;;;;;;4143458;28;20040;-68
2022/04/16 08:16:57;;;;;;;19.27;17.23;;;36.50;73.50;;;;;;4144897;28;20524;-71
2022/04/16 08:19:02;;;;;;;25.77;17.73;;;36.50;73.90;;;;;;4162416;28;20415;-69
2022/04/16 08:21:06;;;;;;;18.55;16.60;;;36.50;73.30;;;;;;4162237;28;20072;-67
2022/04/16 08:23:14;;;;;;;20.27;17.33;;;36.60;73.50;;;;;;4160276;28;20069;-70
2022/04/16 08:27:26;;;;;;;20.67;17.52;;;36.50;73.00;;;;;;4153927;28;20840;-67
2022/04/16 08:29:32;;;;;;;22.05;16.98;;;36.50;72.50;;;;;;4156375;28;20049;-68
2022/04/16 08:31:39;;;;;;;18.98;16.67;;;36.50;72.50;;;;;;4149226;28;20049;-68
2022/04/16 08:34:09;;;;;;;21.90;16.90;;;36.50;72.90;;;;;;4132317;28;20061;-70
2022/04/16 08:36:16;;;;;;;18.85;16.95;;;36.40;73.80;;;;;;4135254;28;20066;-68
2022/04/16 08:38:24;;;;;;;18.83;17.00;;;36.50;74.30;;;;;;4140068;28;20046;-68
2022/04/16 08:40:31;;;;;;;19.70;16.58;;;36.40;74.80;;;;;;4106192;28;20074;-69
2022/04/16 08:42:38;;;;;;;17.55;15.68;;;36.40;75.00;;;;;;4120801;28;20504;-68
2022/04/16 08:44:43;;;;;;;18.60;16.67;;;36.40;75.20;;;;;;4122690;28;20046;-68
2022/04/16 08:46:50;;;;;;;20.83;17.02;;;36.40;75.10;;;;;;4095922;28;20114;-67
2022/04/16 08:48:55;;;;;;;19.23;17.33;;;36.30;75.00;;;;;;4110966;28;20394;-68
2022/04/16 08:51:00;;;;;;;19.52;15.95;;;36.30;74.80;;;;;;4111865;28;20047;-68
2022/04/16 08:53:06;;;;;;;19.30;16.10;;;36.30;74.90;;;;;;4110840;28;20533;-68
2022/04/16 08:55:14;;;;;;;17.65;15.80;;;36.20;74.90;;;;;;4110439;28;20485;-68
2022/04/16 08:57:19;;;;;;;19.05;17.05;;;36.20;75.10;;;;;;4111694;28;20055;-67
2022/04/16 08:59:26;;;;;;;20.65;16.80;;;36.20;75.10;;;;;;4111993;28;20118;-67
2022/04/16 09:01:34;;;;;;;18.67;16.58;;;36.10;75.20;;;;;;4110527;28;20055;-68
2022/04/16 09:03:40;;;;;;;20.05;16.70;;;36.10;75.40;;;;;;4110779;28;20133;-68
2022/04/16 09:05:46;;;;;;;21.50;17.17;;;36.10;75.50;;;;;;4111956;28;20050;-67
2022/04/16 09:07:55;;;;;;;18.23;16.08;;;36.10;75.70;;;;;;4111735;28;20043;-68
2022/04/16 09:10:08;;;;;;;20.92;16.67;;;36.10;75.90;;;;;;4094951;28;20388;-67
2022/04/16 09:12:18;;;;;;;27.48;16.00;;;36.10;76.30;;;;;;4109034;28;20718;-67
2022/04/16 09:14:36;;;;;;;25.10;16.35;;;36.10;76.30;;;;;;4134603;28;20054;-67
2022/04/16 09:16:42;;;;;;;19.48;17.20;;;36.10;76.20;;;;;;4127908;28;20047;-68
2022/04/16 09:18:50;;;;;;;19.48;16.55;;;36.10;76.20;;;;;;4139143;28;20137;-67
2022/04/16 09:20:55;;;;;;;20.30;16.75;;;36.10;76.00;;;;;;4142279;28;20121;-67
2022/04/16 09:23:00;;;;;;;21.77;17.15;;;36.10;75.90;;;;;;4144465;28;20468;-67
2022/04/16 09:25:29;;;;;;;20.33;18.23;;;36.00;75.70;;;;;;4141395;28;20045;-69
2022/04/16 09:27:45;;;;;;;21.63;19.15;;;36.00;75.90;;;;;;4144240;28;20170;-68
2022/04/16 09:29:50;;;;;;;20.52;18.40;;;36.00;76.60;;;;;;4151664;28;20053;-69
2022/04/16 09:31:57;;;;;;;20.50;18.20;;;36.00;76.80;;;;;;4154672;28;20364;-69
2022/04/16 09:34:04;;;;;;;22.70;17.90;;;36.00;77.00;;;;;;4155124;28;20058;-68
2022/04/16 09:36:09;;;;;;;20.23;18.13;;;36.00;77.40;;;;;;4153811;28;20046;-69
2022/04/16 09:38:17;;;;;;;24.20;19.30;;;36.00;77.80;;;;;;4157638;28;20046;-69
2022/04/16 09:40:24;;;;;;;25.33;19.08;;;35.90;78.10;;;;;;4154744;28;20100;-69
2022/04/16 09:42:30;;;;;;;22.00;19.60;;;35.90;78.30;;;;;;4154757;28;20045;-67
2022/04/16 09:44:37;;;;;;;24.05;19.08;;;35.90;78.60;;;;;;4137413;28;20577;-67
2022/04/16 09:46:45;;;;;;;27.08;20.13;;;35.80;78.50;;;;;;4153689;28;20095;-67
2022/04/16 09:48:50;;;;;;;22.98;19.70;;;35.80;78.70;;;;;;4154205;28;20109;-70
2022/04/16 09:50:57;;;;;;;23.42;19.05;;;35.80;78.80;;;;;;4153716;28;20046;-71
2022/04/16 09:53:03;;;;;;;24.25;19.15;;;35.80;78.80;;;;;;4154318;28;20102;-70
2022/04/16 09:55:09;;;;;;;27.00;19.60;;;35.70;78.90;;;;;;4135680;28;20513;-70
2022/04/16 09:57:17;;;;;;;23.70;20.33;;;35.70;79.10;;;;;;4117290;28;20460;-69
2022/04/16 09:59:24;;;;;;;27.65;20.25;;;35.70;79.20;;;;;;4128570;28;20042;-69
2022/04/16 10:01:30;;;;;;;21.77;19.33;;;35.60;79.30;;;;;;4128616;28;20046;-71
2022/04/16 10:03:39;;;;;;;22.70;19.30;;;35.60;79.60;;;;;;4138578;28;20046;-71
2022/04/16 10:05:46;;;;;;;24.75;20.25;;;35.50;80.50;;;;;;4116075;28;20113;-70
2022/04/16 10:07:55;;;;;;;23.58;20.60;;;35.40;81.10;;;;;;4118651;28;20073;-72
2022/04/16 10:10:03;;;;;;;23.73;19.35;;;35.30;82.00;;;;;;4103837;28;20134;-70
2022/04/16 10:14:29;;;;;;;23.65;20.73;;;35.20;83.00;;;;;;4120708;28;20632;-72
2022/04/16 10:16:46;;;;;;;25.63;20.52;;;35.10;83.70;;;;;;4119654;28;20054;-71
2022/04/16 10:18:53;;;;;;;23.42;20.92;;;35.00;83.40;;;;;;4090377;28;20518;-73
2022/04/16 10:21:00;;;;;;;23.20;20.88;;;35.00;83.60;;;;;;4104227;28;20053;-73
2022/04/16 10:23:07;;;;;;;22.92;20.23;;;34.90;83.90;;;;;;4125413;28;20043;-74
2022/04/16 10:25:14;;;;;;;25.13;20.35;;;34.90;84.00;;;;;;4112625;28;20509;-74
2022/04/16 10:27:26;;;;;;;23.90;20.55;;;34.80;84.00;;;;;;4133112;28;20053;-74
2022/04/16 10:29:36;;;;;;;24.92;22.00;;;34.80;84.20;;;;;;4151113;28;20074;-74
2022/04/16 10:31:49;;;;;;;23.63;21.15;;;34.70;84.80;;;;;;4130100;28;20062;-74
2022/04/16 10:34:04;;;;;;;27.73;21.60;;;34.60;84.80;;;;;;4144217;28;20136;-73
2022/04/16 10:36:11;;;;;;;29.60;22.33;;;34.60;84.80;;;;;;4157499;28;20124;-72
2022/04/16 10:38:36;;;;;;;26.02;22.80;;;34.50;85.10;;;;;;4141427;28;20057;-72
2022/04/16 10:40:45;;;;;;;28.00;25.02;;;34.40;85.10;;;;;;4146034;28;20045;-72
2022/04/16 10:42:52;;;;;;;27.35;24.42;;;34.40;85.30;;;;;;4099927;28;20708;-72
2022/04/16 10:45:08;;;;;;;26.85;23.08;;;34.30;84.80;;;;;;4128736;28;20039;-71
2022/04/16 10:47:16;;;;;;;26.10;22.95;;;34.20;84.90;;;;;;4127587;28;20712;-72
2022/04/16 10:49:26;;;;;;;25.52;21.20;;;34.20;84.70;;;;;;4084800;28;20183;-71
2022/04/16 10:51:35;;;;;;;28.40;21.85;;;34.20;84.30;;;;;;4104204;28;20074;-72
2022/04/16 10:53:41;;;;;;;24.23;21.63;;;34.10;84.50;;;;;;4119966;28;20049;-71
2022/04/16 10:55:49;;;;;;;22.80;20.40;;;34.00;84.50;;;;;;4074734;28;20044;-72
2022/04/16 10:58:01;;;;;;;23.92;21.35;;;34.00;84.80;;;;;;4122338;28;20437;-72
2022/04/16 11:00:13;;;;;;;25.83;22.13;;;34.00;84.50;;;;;;4124179;28;20114;-73
2022/04/16 11:02:38;;;;;;;26.42;23.13;;;33.90;84.50;;;;;;4111313;28;20917;-74
2022/04/16 11:04:58;;;;;;;34.05;27.00;;;33.80;84.40;;;;;;4125351;28;20043;-72